createdAt,value
2019-04-14T00:00:23.634Z,85.60
2019-04-14T00:02:44.721Z,87.00
2019-04-14T00:04:50.829Z,88.40
2019-04-14T00:06:54.786Z,90.00
2019-04-14T00:08:58.711Z,89.90
2019-04-14T00:11:02.412Z,90.40
2019-04-14T00:13:06.773Z,90.40
2019-04-14T00:15:24.387Z,90.00
2019-04-14T00:17:17.874Z,87.80
2019-04-14T00:19:21.799Z,88.90
2019-04-14T00:21:26.072Z,88.10
2019-04-14T00:23:30.424Z,88.00
2019-04-14T00:25:34.786Z,88.30
2019-04-14T00:27:38.867Z,87.20
2019-04-14T00:29:43.625Z,86.30
2019-04-14T00:31:47.935Z,85.30
2019-04-14T00:33:54.263Z,85.70
2019-04-14T00:36:00.230Z,85.00
2019-04-14T00:38:17.648Z,84.20
2019-04-14T00:40:27.081Z,85.60
2019-04-14T00:42:47.371Z,85.60
2019-04-14T00:44:53.750Z,89.50
2019-04-14T00:47:00.536Z,90.20
2019-04-14T00:49:04.976Z,90.40
2019-04-14T00:51:09.192Z,88.80
2019-04-14T00:53:13.943Z,88.40
2019-04-14T00:55:18.335Z,89.40
2019-04-14T00:57:22.412Z,89.40
2019-04-14T00:59:26.810Z,88.00
2019-04-14T01:01:30.893Z,87.90
2019-04-14T01:03:35.202Z,88.80
2019-04-14T01:05:39.350Z,89.80
2019-04-14T01:07:43.442Z,90.10
2019-04-14T01:09:47.116Z,90.60
2019-04-14T01:11:51.081Z,91.00
2019-04-14T01:13:55.114Z,90.70
2019-04-14T01:16:07.193Z,88.60
2019-04-14T01:18:04.214Z,86.60
2019-04-14T01:20:07.973Z,86.60
2019-04-14T01:22:12.002Z,88.70
2019-04-14T01:24:16.375Z,88.80
2019-04-14T01:26:20.349Z,87.30
2019-04-14T01:28:24.422Z,85.50
2019-04-14T01:30:28.410Z,84.50
2019-04-14T01:32:32.652Z,84.90
2019-04-14T01:34:37.006Z,86.70
2019-04-14T01:36:40.949Z,87.20
2019-04-14T01:38:44.997Z,87.60
2019-04-14T01:40:48.876Z,87.30
2019-04-14T01:42:52.821Z,87.70
2019-04-14T01:44:57.072Z,87.40
2019-04-14T01:47:01.047Z,87.20
2019-04-14T01:49:05.005Z,86.00
2019-04-14T01:51:20.267Z,85.40
2019-04-14T01:53:44.604Z,86.90
2019-04-14T01:55:54.890Z,86.90
2019-04-14T01:58:01.032Z,88.10
2019-04-14T02:00:20.885Z,87.30
2019-04-14T02:02:26.990Z,86.30
2019-04-14T02:04:31.269Z,85.40
2019-04-14T02:06:35.613Z,86.80
2019-04-14T02:08:39.397Z,88.80
2019-04-14T02:10:43.468Z,89.20
2019-04-14T02:12:47.412Z,90.30
2019-04-14T02:14:51.622Z,89.40
2019-04-14T02:16:58.770Z,88.80
2019-04-14T02:19:00.884Z,88.80
2019-04-14T02:21:06.444Z,88.00
2019-04-14T02:23:10.419Z,85.80
2019-04-14T02:25:14.321Z,83.90
2019-04-14T02:27:18.824Z,83.40
2019-04-14T02:29:23.332Z,83.70
2019-04-14T02:31:54.441Z,83.60
2019-04-14T02:34:17.056Z,84.00
2019-04-14T02:38:18.202Z,81.80
2019-04-14T02:40:24.302Z,80.90
2019-04-14T02:42:30.952Z,82.20
2019-04-14T02:44:33.548Z,82.60
2019-04-14T02:46:38.406Z,82.10
2019-04-14T02:48:44.157Z,82.50
2019-04-14T02:50:42.215Z,84.00
2019-04-14T02:54:59.612Z,85.20
2019-04-14T02:57:03.659Z,84.80
2019-04-14T03:01:21.354Z,82.80
2019-04-14T03:03:16.092Z,81.60
2019-04-14T03:05:16.403Z,81.10
2019-04-14T03:09:36.405Z,80.60
2019-04-14T03:11:41.593Z,83.90
2019-04-14T03:13:49.546Z,84.90
2019-04-14T03:15:47.834Z,83.50
2019-04-14T03:18:00.555Z,83.90
2019-04-14T03:20:15.292Z,83.50
2019-04-14T03:24:27.443Z,85.00
2019-04-14T03:26:35.280Z,87.60
2019-04-14T03:28:38.698Z,88.30
2019-04-14T03:37:31.526Z,84.90
2019-04-14T03:39:34.832Z,84.10
2019-04-14T03:41:24.154Z,83.00
2019-04-14T03:43:25.017Z,83.10
2019-04-14T03:45:36.475Z,84.50
2019-04-14T03:47:34.461Z,85.40
2019-04-14T03:49:54.360Z,87.40
2019-04-14T03:53:47.269Z,86.30
2019-04-14T03:55:58.519Z,85.10
2019-04-14T03:57:56.999Z,83.50
2019-04-14T04:00:00.768Z,84.80
2019-04-14T04:02:05.353Z,84.70
2019-04-14T04:04:09.838Z,84.50
2019-04-14T04:06:13.923Z,85.00
2019-04-14T04:08:18.044Z,86.70
2019-04-14T04:10:22.575Z,87.10
2019-04-14T04:12:27.177Z,88.10
2019-04-14T04:14:31.345Z,87.00
2019-04-14T04:16:37.623Z,86.00
2019-04-14T04:18:51.266Z,84.50
2019-04-14T04:20:58.730Z,82.50
2019-04-14T04:23:07.363Z,81.70
2019-04-14T04:25:13.857Z,82.00
2019-04-14T04:27:35.568Z,81.60
2019-04-14T04:29:41.781Z,81.90
2019-04-14T04:31:54.743Z,81.80
2019-04-14T04:34:03.344Z,80.80
2019-04-14T04:36:27.019Z,80.50
2019-04-14T04:38:48.707Z,80.50
2019-04-14T04:40:52.855Z,79.90
2019-04-14T04:42:56.960Z,79.80
2019-04-14T04:45:01.685Z,79.20
2019-04-14T04:47:05.800Z,79.10
2019-04-14T04:49:15.095Z,78.80
2019-04-14T04:51:15.935Z,78.70
2019-04-14T04:53:20.199Z,78.80
2019-04-14T04:55:24.200Z,81.10
2019-04-14T04:57:28.547Z,82.00
2019-04-14T04:59:32.335Z,81.90
2019-04-14T05:01:36.492Z,82.00
2019-04-14T05:03:40.683Z,81.90
2019-04-14T05:06:09.547Z,81.50
2019-04-14T05:08:13.352Z,80.50
2019-04-14T05:10:24.591Z,80.80
2019-04-14T05:12:30.591Z,81.20
2019-04-14T05:14:36.885Z,80.10
2019-04-14T05:16:41.855Z,80.80
2019-04-14T05:18:46.322Z,80.50
2019-04-14T05:20:51.019Z,81.40
2019-04-14T05:22:55.056Z,82.00
2019-04-14T05:24:59.285Z,81.40
2019-04-14T05:27:03.638Z,80.70
2019-04-14T05:29:07.808Z,80.70
2019-04-14T05:31:12.156Z,79.70
2019-04-14T05:33:16.279Z,81.70
2019-04-14T05:35:20.576Z,81.90
2019-04-14T05:37:24.740Z,85.00
2019-04-14T05:39:28.625Z,85.00
2019-04-14T05:41:33.006Z,84.60
2019-04-14T05:43:48.164Z,83.90
2019-04-14T05:45:45.862Z,83.20
2019-04-14T05:47:50.144Z,82.30
2019-04-14T05:49:56.195Z,83.90
2019-04-14T05:51:59.383Z,85.80
2019-04-14T05:54:03.439Z,83.90
2019-04-14T05:56:07.932Z,84.10
2019-04-14T05:58:12.199Z,83.60
2019-04-14T06:00:18.918Z,83.60
2019-04-14T06:02:22.783Z,83.40
2019-04-14T06:04:26.500Z,83.70
2019-04-14T06:06:30.191Z,82.90
2019-04-14T06:08:33.851Z,83.00
2019-04-14T06:10:37.558Z,82.90
2019-04-14T06:12:41.216Z,80.30
2019-04-14T06:14:44.874Z,82.00
2019-04-14T06:16:48.710Z,81.70
2019-04-14T06:18:52.369Z,80.50
2019-04-14T06:20:56.067Z,79.80
2019-04-14T06:22:59.758Z,81.10
2019-04-14T06:25:04.986Z,81.30
2019-04-14T06:27:08.670Z,81.50
2019-04-14T06:29:15.041Z,80.90
2019-04-14T06:31:38.267Z,80.10
2019-04-14T06:33:43.507Z,80.30
2019-04-14T06:36:05.252Z,80.20
2019-04-14T06:38:10.495Z,80.10
2019-04-14T06:40:14.229Z,81.40
2019-04-14T06:42:17.906Z,78.50
2019-04-14T06:44:21.601Z,80.80
2019-04-14T06:46:25.288Z,81.70
2019-04-14T06:48:28.983Z,81.20
2019-04-14T06:50:32.637Z,81.50
2019-04-14T06:52:36.421Z,80.50
2019-04-14T06:54:40.086Z,79.70
2019-04-14T06:56:43.779Z,79.90
2019-04-14T06:58:47.502Z,78.10
2019-04-14T07:00:52.979Z,79.10
2019-04-14T07:02:56.775Z,78.00
2019-04-14T07:05:00.446Z,75.80
2019-04-14T07:07:04.126Z,77.30
2019-04-14T07:09:08.158Z,77.00
2019-04-14T07:11:11.827Z,76.30
2019-04-14T07:13:15.514Z,76.20
2019-04-14T07:15:19.173Z,74.70
2019-04-14T07:17:22.884Z,76.30
2019-04-14T07:19:26.560Z,74.50
2019-04-14T07:21:30.224Z,74.00
2019-04-14T07:23:34.010Z,72.50
2019-04-14T07:25:37.657Z,72.10
2019-04-14T07:27:41.386Z,72.20
2019-04-14T07:29:49.188Z,71.70
2019-04-14T07:32:12.471Z,72.10
2019-04-14T07:34:26.951Z,73.10
2019-04-14T07:36:50.345Z,73.20
2019-04-14T07:39:10.662Z,72.20
2019-04-14T07:41:18.313Z,74.30
2019-04-14T07:43:26.122Z,74.90
2019-04-14T07:45:31.368Z,75.60
2019-04-14T07:47:39.258Z,76.90
2019-04-14T07:49:56.477Z,77.00
2019-04-14T07:52:01.735Z,77.20
2019-04-14T07:54:07.025Z,75.90
2019-04-14T07:56:12.263Z,75.00
2019-04-14T07:58:20.906Z,73.50
2019-04-14T08:00:44.199Z,71.90
2019-04-14T08:02:49.551Z,70.60
2019-04-14T08:05:00.350Z,69.70
2019-04-14T08:07:04.193Z,68.80
2019-04-14T08:09:07.985Z,66.90
2019-04-14T08:11:11.682Z,64.70
2019-04-14T08:13:15.358Z,66.70
2019-04-14T08:15:19.068Z,66.40
2019-04-14T08:17:22.726Z,63.90
2019-04-14T08:19:26.417Z,64.10
2019-04-14T08:21:30.087Z,63.50
2019-04-14T08:23:33.872Z,63.20
2019-04-14T08:25:37.654Z,62.00
2019-04-14T08:27:43.645Z,61.50
2019-04-14T08:29:47.507Z,61.50
2019-04-14T08:31:51.198Z,62.80
2019-04-14T08:33:54.846Z,62.00
2019-04-14T08:35:58.761Z,63.50
2019-04-14T08:38:02.413Z,64.00
2019-04-14T08:40:06.523Z,62.20
2019-04-14T08:42:14.573Z,59.70
2019-04-14T08:44:19.863Z,59.00
2019-04-14T08:46:25.227Z,60.40
2019-04-14T08:48:49.009Z,59.90
2019-04-14T08:50:54.286Z,61.30
2019-04-14T08:53:08.421Z,61.00
2019-04-14T08:55:13.675Z,61.10
2019-04-14T08:57:19.030Z,59.60
2019-04-14T08:59:26.859Z,58.40
2019-04-14T09:01:38.149Z,59.40
2019-04-14T09:03:45.934Z,59.40
2019-04-14T09:05:51.186Z,59.80
2019-04-14T09:07:56.545Z,60.20
2019-04-14T09:10:04.614Z,59.60
2019-04-14T09:12:15.705Z,60.20
2019-04-14T09:14:24.054Z,59.10
2019-04-14T09:16:27.799Z,59.50
2019-04-14T09:18:31.460Z,59.70
2019-04-14T09:20:35.162Z,59.80
2019-04-14T09:22:38.836Z,59.10
2019-04-14T09:24:42.506Z,60.00
2019-04-14T09:26:46.210Z,61.50
2019-04-14T09:28:49.875Z,61.50
2019-04-14T09:30:53.579Z,60.30
2019-04-14T09:32:57.259Z,59.10
2019-04-14T09:35:01.047Z,60.00
2019-04-14T09:37:04.764Z,59.90
2019-04-14T09:39:08.437Z,60.20
2019-04-14T09:41:12.279Z,58.70
2019-04-14T09:43:15.958Z,59.00
2019-04-14T09:45:19.716Z,59.30
2019-04-14T09:47:23.395Z,64.70
2019-04-14T09:49:27.070Z,62.40
2019-04-14T09:51:30.783Z,60.30
2019-04-14T09:53:34.488Z,60.00
2019-04-14T09:55:38.233Z,62.60
2019-04-14T09:57:41.951Z,61.40
2019-04-14T09:59:45.702Z,61.30
2019-04-14T10:01:49.375Z,61.00
2019-04-14T10:03:53.092Z,61.20
2019-04-14T10:05:56.764Z,61.50
2019-04-14T10:08:00.554Z,60.60
2019-04-14T10:10:04.907Z,61.00
2019-04-14T10:12:08.781Z,59.90
2019-04-14T10:14:12.478Z,60.40
2019-04-14T10:16:16.435Z,59.10
2019-04-14T10:18:20.198Z,58.80
2019-04-14T10:20:23.871Z,58.90
2019-04-14T10:22:33.792Z,59.60
2019-04-14T10:24:32.961Z,58.70
2019-04-14T10:26:36.612Z,57.80
2019-04-14T10:28:40.437Z,58.60
2019-04-14T10:30:44.107Z,60.40
2019-04-14T10:32:47.774Z,61.90
2019-04-14T10:34:51.461Z,61.70
2019-04-14T10:36:55.124Z,60.20
2019-04-14T10:38:58.818Z,59.50
2019-04-14T10:41:02.502Z,57.50
2019-04-14T10:43:06.159Z,57.30
2019-04-14T10:45:09.972Z,57.50
2019-04-14T10:47:13.672Z,56.70
2019-04-14T10:49:17.416Z,57.10
2019-04-14T10:51:29.842Z,58.40
2019-04-14T10:53:26.646Z,55.60
2019-04-14T10:55:32.763Z,55.20
2019-04-14T10:57:36.431Z,56.70
2019-04-14T10:59:40.123Z,57.50
2019-04-14T11:01:43.783Z,57.80
2019-04-14T11:03:47.449Z,57.70
2019-04-14T11:06:01.782Z,57.80
2019-04-14T11:08:05.461Z,56.90
2019-04-14T11:10:09.337Z,55.70
2019-04-14T11:12:13.002Z,55.70
2019-04-14T11:14:16.687Z,55.80
2019-04-14T11:16:20.474Z,58.00
2019-04-14T11:18:24.152Z,59.70
2019-04-14T11:20:27.839Z,61.20
2019-04-14T11:22:31.499Z,58.50
2019-04-14T11:24:35.167Z,58.20
2019-04-14T11:26:38.958Z,56.70
2019-04-14T11:28:42.634Z,56.90
2019-04-14T11:30:48.709Z,56.80
2019-04-14T11:32:56.560Z,57.00
2019-04-14T11:35:16.312Z,56.80
2019-04-14T11:37:37.191Z,55.00
2019-04-14T11:39:42.061Z,53.30
2019-04-14T11:41:45.775Z,54.10
2019-04-14T11:43:49.451Z,54.20
2019-04-14T11:45:53.236Z,53.00
2019-04-14T11:47:56.913Z,53.60
2019-04-14T11:50:00.574Z,52.00
2019-04-14T11:52:04.260Z,52.50
2019-04-14T11:54:07.935Z,53.00
2019-04-14T11:56:11.618Z,53.90
2019-04-14T11:58:15.321Z,54.10
2019-04-14T12:00:26.185Z,52.20
2019-04-14T12:02:43.378Z,52.50
2019-04-14T12:04:48.618Z,53.40
2019-04-14T12:06:53.866Z,54.10
2019-04-14T12:09:01.883Z,52.70
2019-04-14T12:11:05.572Z,50.30
2019-04-14T12:13:10.015Z,51.50
2019-04-14T12:15:16.563Z,52.70
2019-04-14T12:17:19.215Z,54.30
2019-04-14T12:19:22.871Z,55.20
2019-04-14T12:21:26.588Z,53.70
2019-04-14T12:23:30.299Z,53.00
2019-04-14T12:25:33.979Z,53.10
2019-04-14T12:27:37.676Z,52.10
2019-04-14T12:29:41.367Z,54.00
2019-04-14T12:31:46.492Z,52.30
2019-04-14T12:33:50.221Z,50.80
2019-04-14T12:35:54.094Z,50.90
2019-04-14T12:37:57.954Z,53.10
2019-04-14T12:40:02.742Z,53.90
2019-04-14T12:42:24.631Z,51.50
2019-04-14T12:44:47.033Z,51.80
2019-04-14T12:46:55.198Z,51.40
2019-04-14T12:49:03.306Z,52.20
2019-04-14T12:51:23.575Z,51.20
2019-04-14T12:53:27.267Z,50.60
2019-04-14T12:55:30.939Z,52.20
2019-04-14T12:57:36.216Z,53.70
2019-04-14T12:59:39.934Z,53.20
2019-04-14T13:02:01.106Z,50.80
2019-04-14T13:04:04.898Z,51.60
2019-04-14T13:06:08.561Z,51.40
2019-04-14T13:08:12.261Z,50.40
2019-04-14T13:10:15.935Z,51.20
2019-04-14T13:12:19.622Z,50.80
2019-04-14T13:14:23.348Z,49.60
2019-04-14T13:16:27.006Z,50.10
2019-04-14T13:18:30.717Z,48.80
2019-04-14T13:20:34.388Z,50.40
2019-04-14T13:22:38.132Z,52.00
2019-04-14T13:24:41.861Z,50.80
2019-04-14T13:26:45.534Z,50.60
2019-04-14T13:28:49.206Z,50.90
2019-04-14T13:30:53.416Z,51.10
2019-04-14T13:32:57.080Z,49.70
2019-04-14T13:35:00.846Z,49.10
2019-04-14T13:37:04.528Z,48.50
2019-04-14T13:39:08.336Z,49.10
2019-04-14T13:41:12.020Z,48.20
2019-04-14T13:43:15.699Z,48.90
2019-04-14T13:45:19.409Z,48.80
2019-04-14T13:47:23.063Z,49.20
2019-04-14T13:49:26.758Z,48.50
2019-04-14T13:51:30.463Z,49.00
2019-04-14T13:53:34.245Z,48.90
2019-04-14T13:55:37.950Z,46.70
2019-04-14T13:57:41.626Z,47.50
2019-04-14T13:59:45.373Z,47.00
2019-04-14T14:01:49.062Z,48.30
2019-04-14T14:03:52.738Z,47.20
2019-04-14T14:05:56.449Z,47.40
2019-04-14T14:08:00.109Z,46.80
2019-04-14T14:10:05.703Z,47.10
2019-04-14T14:12:27.227Z,46.80
2019-04-14T14:14:41.440Z,46.90
2019-04-14T14:17:04.798Z,45.60
2019-04-14T14:19:12.600Z,46.20
2019-04-14T14:21:17.905Z,45.80
2019-04-14T14:23:39.458Z,45.30
2019-04-14T14:25:44.733Z,48.00
2019-04-14T14:27:48.401Z,48.50
2019-04-14T14:29:52.205Z,47.30
2019-04-14T14:31:56.616Z,48.80
2019-04-14T14:34:00.385Z,49.60
2019-04-14T14:36:04.176Z,48.90
2019-04-14T14:38:07.843Z,49.20
2019-04-14T14:40:11.620Z,50.00
2019-04-14T14:42:15.322Z,50.30
2019-04-14T14:44:19.492Z,49.60
2019-04-14T14:46:31.037Z,49.30
2019-04-14T14:48:36.317Z,48.80
2019-04-14T14:50:41.558Z,49.20
2019-04-14T14:52:45.315Z,47.80
2019-04-14T14:54:48.964Z,48.30
2019-04-14T14:56:52.655Z,49.10
2019-04-14T14:58:56.319Z,50.70
2019-04-14T15:01:00.015Z,49.20
2019-04-14T15:03:03.874Z,48.10
2019-04-14T15:05:07.542Z,48.50
2019-04-14T15:07:11.236Z,50.50
2019-04-14T15:09:15.002Z,51.00
2019-04-14T15:11:18.789Z,50.50
2019-04-14T15:13:22.575Z,51.10
2019-04-14T15:15:27.709Z,50.30
2019-04-14T15:17:31.411Z,50.30
2019-04-14T15:19:35.069Z,50.20
2019-04-14T15:21:38.741Z,49.50
2019-04-14T15:23:42.422Z,52.20
2019-04-14T15:25:46.107Z,49.70
2019-04-14T15:27:49.797Z,48.40
2019-04-14T15:29:53.592Z,48.90
2019-04-14T15:31:57.254Z,48.00
2019-04-14T15:34:00.971Z,47.70
2019-04-14T15:36:04.736Z,47.70
2019-04-14T15:38:08.580Z,49.20
2019-04-14T15:40:12.443Z,51.30
2019-04-14T15:42:16.115Z,51.70
2019-04-14T15:44:19.855Z,52.60
2019-04-14T15:46:23.547Z,53.40
2019-04-14T15:48:27.263Z,53.40
2019-04-14T15:50:30.995Z,52.60
2019-04-14T15:52:34.682Z,52.80
2019-04-14T15:54:38.376Z,52.90
2019-04-14T15:56:43.627Z,54.30
2019-04-14T15:58:48.998Z,53.60
2019-04-14T16:01:12.376Z,55.00
2019-04-14T16:03:20.461Z,54.90
2019-04-14T16:05:34.502Z,56.50
2019-04-14T16:07:56.114Z,58.70
2019-04-14T16:10:13.339Z,57.40
2019-04-14T16:12:18.774Z,57.00
2019-04-14T16:14:40.508Z,57.20
2019-04-14T16:16:51.601Z,56.50
2019-04-14T16:18:56.857Z,57.20
2019-04-14T16:21:00.618Z,57.60
2019-04-14T16:23:04.697Z,57.60
2019-04-14T16:25:09.821Z,57.70
2019-04-14T16:27:27.058Z,58.80
2019-04-14T16:29:32.321Z,60.50
2019-04-14T16:31:46.308Z,59.60
2019-04-14T16:34:07.663Z,59.20
2019-04-14T16:36:11.349Z,58.80
2019-04-14T16:38:15.038Z,58.20
2019-04-14T16:40:18.835Z,57.60
2019-04-14T16:42:22.558Z,58.60
2019-04-14T16:44:26.240Z,58.90
2019-04-14T16:46:30.096Z,59.10
2019-04-14T16:48:33.791Z,58.50
2019-04-14T16:50:37.444Z,58.70
2019-04-14T16:52:45.233Z,58.30
2019-04-14T16:55:08.611Z,59.50
2019-04-14T16:57:31.699Z,59.60
2019-04-14T16:59:35.587Z,60.00
2019-04-14T17:01:41.112Z,60.80
2019-04-14T17:03:44.839Z,60.80
2019-04-14T17:05:58.890Z,62.20
2019-04-14T17:08:02.915Z,62.40
2019-04-14T17:10:06.853Z,61.30
2019-04-14T17:12:10.577Z,62.30
2019-04-14T17:14:15.898Z,62.80
2019-04-14T17:16:36.622Z,62.20
2019-04-14T17:18:41.885Z,62.60
2019-04-14T17:20:59.087Z,63.10
2019-04-14T17:23:16.694Z,63.70
2019-04-14T17:25:21.970Z,63.40
2019-04-14T17:27:27.214Z,64.40
2019-04-14T17:29:44.348Z,64.00
2019-04-14T17:31:49.603Z,63.90
2019-04-14T17:34:09.855Z,65.00
2019-04-14T17:36:30.316Z,65.60
2019-04-14T17:39:03.896Z,66.00
2019-04-14T17:41:09.219Z,65.10
2019-04-14T17:43:17.347Z,64.20
2019-04-14T17:45:25.077Z,64.30
2019-04-14T17:47:30.400Z,64.70
2019-04-14T17:49:38.155Z,65.40
2019-04-14T17:51:43.441Z,66.00
2019-04-14T17:53:48.814Z,67.60
2019-04-14T17:56:09.130Z,67.10
2019-04-14T17:58:17.427Z,67.20
2019-04-14T18:00:38.874Z,66.20
2019-04-14T18:03:00.707Z,67.10
2019-04-14T18:05:06.855Z,66.80
2019-04-14T18:07:14.944Z,65.00
2019-04-14T18:09:28.621Z,63.40
2019-04-14T18:11:33.281Z,63.50
2019-04-14T18:13:44.464Z,65.60
2019-04-14T18:15:58.286Z,64.20
2019-04-14T18:18:25.382Z,64.10
2019-04-14T18:20:37.070Z,66.70
2019-04-14T18:22:41.681Z,67.80
2019-04-14T18:24:45.391Z,68.20
2019-04-14T18:26:50.648Z,69.40
2019-04-14T18:29:01.649Z,68.30
2019-04-14T18:31:21.961Z,69.10
2019-04-14T18:33:29.677Z,70.20
2019-04-14T18:35:40.806Z,69.90
2019-04-14T18:37:52.121Z,69.80
2019-04-14T18:40:12.815Z,69.40
2019-04-14T18:42:23.987Z,67.90
2019-04-14T18:44:29.255Z,69.40
2019-04-14T18:46:39.719Z,70.40
2019-04-14T18:48:44.992Z,69.10
2019-04-14T18:50:51.990Z,70.00
2019-04-14T18:53:00.244Z,69.50
2019-04-14T18:55:09.089Z,70.80
2019-04-14T18:57:14.454Z,69.80
2019-04-14T18:59:22.891Z,69.20
2019-04-14T19:01:28.187Z,69.80
2019-04-14T19:03:31.922Z,69.50
2019-04-14T19:05:35.878Z,69.10
2019-04-14T19:07:39.837Z,66.50
2019-04-14T19:09:43.638Z,64.80
2019-04-14T19:11:51.559Z,64.40
2019-04-14T19:13:59.837Z,65.40
2019-04-14T19:16:20.346Z,65.20
2019-04-14T19:18:28.492Z,64.80
2019-04-14T19:20:32.343Z,64.60
2019-04-14T19:22:36.190Z,68.60
2019-04-14T19:24:41.631Z,68.20
2019-04-14T19:26:45.354Z,69.00
2019-04-14T19:28:49.051Z,69.20
2019-04-14T19:30:52.768Z,68.70
2019-04-14T19:32:56.441Z,68.60
2019-04-14T19:35:00.122Z,69.60
2019-04-14T19:37:03.802Z,70.30
2019-04-14T19:39:10.359Z,71.10
2019-04-14T19:41:14.059Z,71.20
2019-04-14T19:43:23.735Z,69.80
2019-04-14T19:45:23.269Z,69.50
2019-04-14T19:47:26.920Z,70.40
2019-04-14T19:49:30.599Z,70.80
2019-04-14T19:51:34.282Z,71.40
2019-04-14T19:53:37.969Z,70.30
2019-04-14T19:55:41.682Z,69.30
2019-04-14T19:57:45.367Z,71.10
2019-04-14T19:59:49.042Z,72.00
2019-04-14T20:01:52.726Z,72.20
2019-04-14T20:03:56.474Z,72.00
2019-04-14T20:06:00.150Z,73.50
2019-04-14T20:08:03.829Z,73.40
2019-04-14T20:10:08.792Z,73.90
2019-04-14T20:12:13.401Z,73.70
2019-04-14T20:14:17.060Z,74.70
2019-04-14T20:16:27.799Z,74.70
2019-04-14T20:18:49.074Z,74.50
2019-04-14T20:20:57.039Z,74.60
2019-04-14T20:23:11.425Z,75.50
2019-04-14T20:25:33.043Z,74.40
2019-04-14T20:27:35.089Z,74.90
2019-04-14T20:29:52.517Z,73.00
2019-04-14T20:31:57.783Z,71.70
2019-04-14T20:34:01.540Z,71.90
2019-04-14T20:36:05.456Z,71.70
2019-04-14T20:38:09.287Z,71.40
2019-04-14T20:40:12.945Z,72.10
2019-04-14T20:42:16.632Z,70.80
2019-04-14T20:44:20.394Z,70.90
2019-04-14T20:46:24.071Z,68.70
2019-04-14T20:48:27.746Z,68.90
2019-04-14T20:50:31.419Z,70.00
2019-04-14T20:52:38.284Z,70.30
2019-04-14T20:54:41.961Z,70.30
2019-04-14T20:56:45.627Z,70.90
2019-04-14T20:58:49.328Z,71.10
2019-04-14T21:00:53.007Z,70.80
2019-04-14T21:03:04.096Z,69.10
2019-04-14T21:05:27.490Z,68.50
2019-04-14T21:07:49.039Z,70.50
2019-04-14T21:09:54.293Z,71.50
2019-04-14T21:11:59.520Z,72.20
2019-04-14T21:14:19.902Z,73.70
2019-04-14T21:16:36.918Z,73.90
2019-04-14T21:18:50.982Z,75.00
2019-04-14T21:21:05.163Z,74.10
2019-04-14T21:23:30.134Z,74.50
2019-04-14T21:25:44.023Z,76.50
2019-04-14T21:27:52.187Z,75.50
2019-04-14T21:29:57.451Z,75.40
2019-04-14T21:32:02.698Z,74.20
2019-04-14T21:34:13.633Z,73.70
2019-04-14T21:36:18.881Z,73.40
2019-04-14T21:38:29.927Z,73.20
2019-04-14T21:40:44.179Z,73.60
2019-04-14T21:42:47.838Z,74.10
2019-04-14T21:44:51.539Z,75.10
2019-04-14T21:46:55.203Z,74.40
2019-04-14T21:48:58.882Z,73.20
2019-04-14T21:51:02.584Z,73.90
2019-04-14T21:53:06.268Z,74.90
2019-04-14T21:55:09.951Z,76.40
2019-04-14T21:57:30.405Z,75.00
2019-04-14T21:59:35.990Z,74.60
2019-04-14T22:01:57.383Z,75.80
2019-04-14T22:04:02.637Z,77.10
2019-04-14T22:06:07.883Z,76.10
2019-04-14T22:08:13.118Z,78.80
2019-04-14T22:10:24.151Z,79.10
2019-04-14T22:12:28.129Z,78.60
2019-04-14T22:14:31.790Z,78.50
2019-04-14T22:16:36.295Z,77.90
2019-04-14T22:18:39.968Z,78.70
2019-04-14T22:20:43.773Z,79.00
2019-04-14T22:22:47.442Z,78.00
2019-04-14T22:24:51.171Z,77.30
2019-04-14T22:26:56.024Z,76.00
2019-04-14T22:29:02.211Z,75.10
2019-04-14T22:31:05.143Z,74.20
2019-04-14T22:33:08.798Z,73.50
2019-04-14T22:35:12.591Z,72.70
2019-04-14T22:37:16.275Z,70.50
2019-04-14T22:39:20.065Z,69.80
2019-04-14T22:41:23.753Z,69.00
2019-04-14T22:43:27.525Z,68.80
2019-04-14T22:45:31.195Z,68.50
2019-04-14T22:47:34.950Z,68.20
2019-04-14T22:49:38.630Z,68.60
2019-04-14T22:51:42.297Z,70.40
2019-04-14T22:53:45.986Z,70.70
2019-04-14T22:55:49.685Z,72.10
2019-04-14T22:57:53.392Z,73.90
2019-04-14T22:59:57.048Z,74.50
2019-04-14T23:02:07.750Z,74.40
2019-04-14T23:04:16.334Z,75.70
2019-04-14T23:06:37.814Z,77.10
2019-04-14T23:08:43.046Z,77.60
2019-04-14T23:11:04.352Z,75.90
2019-04-14T23:13:12.310Z,75.10
2019-04-14T23:15:17.555Z,75.50
2019-04-14T23:17:23.135Z,74.70
2019-04-14T23:19:28.426Z,74.10
2019-04-14T23:21:33.910Z,73.30
2019-04-14T23:23:39.184Z,72.90
2019-04-14T23:25:42.911Z,72.40
2019-04-14T23:27:46.730Z,72.70
2019-04-14T23:29:50.402Z,73.90
2019-04-14T23:31:54.206Z,74.30
2019-04-14T23:33:57.879Z,75.50
2019-04-14T23:36:01.514Z,77.00
2019-04-14T23:38:05.218Z,75.30
2019-04-14T23:40:08.911Z,74.20
2019-04-14T23:42:12.634Z,73.40
2019-04-14T23:44:16.291Z,72.90
2019-04-14T23:46:20.109Z,72.80
2019-04-14T23:48:23.931Z,72.50
2019-04-14T23:50:27.586Z,73.20
2019-04-14T23:52:31.287Z,73.30
2019-04-14T23:54:34.969Z,75.40
2019-04-14T23:56:38.779Z,75.40
2019-04-14T23:58:42.467Z,74.70
